AirNav   Bose Proflight Series 2 Wireless viation Headset
 
 333 users online  

65NM Curtis and Curtis Airport
Forrest, New Mexico, USA

GOING TO FORREST?


FAA INFORMATION EFFECTIVE 12 SEPTEMBER 2019

Location

FAA Identifier: 65NM
Lat/Long: 34-43-36.2390N 103-36-34.8560W
34-43.603983N 103-36.580933W
34.7267331,-103.6096822
(estimated)
Elevation: 4691 ft. / 1429.8 m (surveyed)
Variation: 10E (1985)
From city: 4 miles S of FORREST, NM
Time zone: UTC -6 (UTC -7 during Standard Time)
Zip code: 88124

Airport Operations

Airport use: Private use. Permission required prior to landing
Activation date: 01/1967
Control tower: no
ARTCC: ALBUQUERQUE CENTER
FSS: ALBUQUERQUE FLIGHT SERVICE STATION
Attendance: UNATNDD
Wind indicator: no
Segmented circle: no

Nearby radio navigation aids

VOR radial/distance  VOR name  Freq  Var
TCCr169/27.3TUCUMCARI VORTAC113.6012E

Airport Services

Airframe service: NONE
Powerplant service: NONE

Runway Information

Runway 17/35

Dimensions: 3600 x 40 ft. / 1097 x 12 m
Surface: dirt
RUNWAY 17  RUNWAY 35
Traffic pattern: leftleft
Obstructions: fencefence

Airport Ownership and Management from official FAA records

Ownership: Privately-owned
Owner: J. V. CURTIS
2909 N PRINCE, SE
CLOVIS, NM 88101
Phone 505-458-6724

Airport Operational Statistics

Aircraft based on the field: 1
Single engine airplanes: 1
    

Additional Remarks

FOR CD CTC ALBUQUERQUE ARTCC AT 505-856-4861.

Instrument Procedures

There are no published instrument procedures at 65NM.

Some nearby airports with instrument procedures:

KCVS - Cannon Air Force Base (25 nm SE)
KTCC - Tucumcari Municipal Airport (27 nm N)
KCVN - Clovis Municipal Airport (32 nm SE)
KPRZ - Portales Municipal Airport (36 nm S)
2T1 - Muleshoe Municipal Airport (58 nm SE)
 
Loc | Ops | Rwys | IFR | FBO | Links
Com | Nav | Svcs | Stats | Notes

AirBoss

 
Area around 65NM (Curtis and Curtis Airport)
 
Road maps at: MapQuest Bing Google
 
Aerial photo
No photo
 
Sectional chart

 
Airport distance calculator
Flying to Curtis and Curtis Airport? Find the distance to fly.

From to 65NM

Sunrise and sunset
Times for 24-Sep-2019
 Local
(UTC-6)
 Zulu
(UTC)
Morning civil twilight06:2012:20
Sunrise06:4512:45
Sunset18:4800:48
Evening civil twilight19:1301:13

Current date and time
Zulu (UTC)  24-Sep-2019 09:46:29
Local (UTC-6)  24-Sep-2019 03:46:29
 
METAR
KCVS 
26nm SE 
240908Z AUTO 23005KT 8SM OVC003 18/18 A3008 RMK AO2 CIG 002 RWY22 SLP126 $
KTCC 
27nm N 
240853Z AUTO 24004KT 10SM CLR 21/18 A3000 RMK AO2 WSHFT 0744 SLP091 T02060178 58001
KCVN 
33nm SE 
240856Z AUTO 17009KT 5SM BR OVC003 18/18 A3006 RMK AO2 SLP135 T01830183 56005
TAF
KCVS 
26nm SE 
240200Z 2402/2508 19012KT 9999 SCT050 SCT250 QNH3007INS BECMG 2404/2405 16006KT 6000 BR FEW010 SCT025 QNH3009INS BECMG 2405/2406 17008KT 4800 BR SCT009 BKN012 BKN025 QNH3005INS BECMG 2409/2410 VRB05KT 3200 BR OVC006 QNH3005INS BECMG 2413/2414 VRB05KT 6000 BR FEW006 SCT012 BKN026 QNH3006INS BECMG 2415/2416 23008KT 9999 NSW FEW025 SCT100 QNH2999INS BECMG 2419/2420 24010KT 9999 VCSH SCT060 BKN120 QNH2995INS TEMPO 2422/2501 23012G18KT VCTS BKN065CB BKN100 BECMG 2501/2502 20006KT 9999 NSW SCT080 QNH2
KTCC 
27nm N 
240521Z 2406/2506 18009KT P6SM SKC FM241100 24008KT P6SM SCT130 FM241800 24011G17KT P6SM FEW200 FM250000 23006KT P6SM FEW200
NOTAMs
Click for the latest NOTAMs
NOTAMs are issued by the DoD/FAA and will open in a separate window not controlled by AirNav.

 

 
 

Would you like to see your business listed on this page?

 If your business provides an interesting product or service to pilots, flight crews, aircraft, or users of the Curtis and Curtis Airport, you should consider listing it here.  To start the listing process, click on the button below
 
Add a business
 

Other Pages about Curtis and Curtis Airport

Update a link
 
Copyright © AirNav, LLC. All rights reserved. Privacy Policy  Contact